Time;durP1;ratioP1;P1;durP2;ratioP2;P2;SDS_P1;SDS_P2;PMS_P1;PMS_P2;Temp;Humidity;BMP_temperature;BMP_pressure;BME280_temperature;BME280_humidity;BME280_pressure;Samples;Min_cycle;Max_cycle;Signal;HPM_P1;HPM_P2
2024/03/09 00:01:55;;;;;;;18.23;11.32;;;4.00;1.00;;;;;;7376733;19;20007;-70
2024/03/09 00:04:25;;;;;;;18.65;11.20;;;3.90;1.00;;;;;;7373481;19;20023;-71
2024/03/09 00:06:55;;;;;;;19.25;11.32;;;3.90;1.00;;;;;;7378364;19;20019;-70
2024/03/09 00:09:25;;;;;;;16.83;11.07;;;3.90;1.00;;;;;;7377785;19;20022;-71
2024/03/09 00:11:57;;;;;;;19.50;12.05;;;3.80;1.00;;;;;;7377550;19;20014;-70
2024/03/09 00:14:29;;;;;;;18.45;10.73;;;3.80;1.00;;;;;;7372220;19;20041;-70
2024/03/09 00:16:59;;;;;;;19.20;12.30;;;3.80;1.00;;;;;;7377870;19;20003;-69
2024/03/09 00:19:29;;;;;;;18.65;11.30;;;3.80;1.00;;;;;;7377821;19;20014;-70
2024/03/09 00:22:00;;;;;;;18.90;11.23;;;3.70;1.00;;;;;;7377183;19;20011;-69
2024/03/09 00:24:30;;;;;;;28.73;14.75;;;3.60;1.00;;;;;;7375161;19;20467;-70
2024/03/09 00:27:07;;;;;;;25.55;13.43;;;3.60;1.00;;;;;;7376289;19;20014;-69
2024/03/09 00:29:37;;;;;;;21.17;12.02;;;3.60;1.00;;;;;;7376612;19;20017;-70
2024/03/09 00:32:08;;;;;;;19.10;11.32;;;3.50;1.00;;;;;;7374755;19;20044;-71
2024/03/09 00:34:38;;;;;;;20.55;12.10;;;3.50;1.00;;;;;;7373328;19;20364;-70
2024/03/09 00:37:08;;;;;;;19.33;11.05;;;3.50;1.00;;;;;;7378404;19;20025;-70
2024/03/09 00:39:39;;;;;;;19.23;11.68;;;3.40;1.00;;;;;;7382695;19;20011;-70
2024/03/09 00:42:14;;;;;;;21.38;11.73;;;3.40;1.00;;;;;;7382158;19;20017;-70
2024/03/09 00:44:44;;;;;;;18.23;11.05;;;3.50;1.00;;;;;;7382288;19;20006;-70
2024/03/09 00:47:14;;;;;;;21.77;11.65;;;3.50;1.00;;;;;;7383067;19;20027;-70
2024/03/09 00:49:44;;;;;;;20.88;12.18;;;3.50;1.00;;;;;;7382752;19;20039;-70
2024/03/09 00:52:14;;;;;;;19.70;11.05;;;3.50;1.00;;;;;;7382319;19;20011;-69
2024/03/09 00:54:44;;;;;;;21.88;12.65;;;3.40;1.00;;;;;;7381723;19;20352;-70
2024/03/09 00:57:17;;;;;;;21.50;12.20;;;3.40;1.00;;;;;;7382122;19;20039;-70
2024/03/09 00:59:47;;;;;;;20.25;12.05;;;3.40;1.00;;;;;;7382371;19;20020;-71
2024/03/09 01:02:18;;;;;;;19.92;12.07;;;3.40;1.00;;;;;;7382213;19;20021;-70
2024/03/09 01:04:49;;;;;;;18.98;11.40;;;3.30;1.00;;;;;;7381133;19;20364;-70
2024/03/09 01:07:20;;;;;;;21.55;12.13;;;3.30;1.00;;;;;;7382426;19;20545;-70
2024/03/09 01:09:50;;;;;;;21.52;12.43;;;3.30;1.00;;;;;;7381453;19;20021;-70
2024/03/09 01:12:23;;;;;;;19.92;11.50;;;3.40;1.00;;;;;;7381121;19;20420;-70
2024/03/09 01:14:53;;;;;;;21.08;12.52;;;3.40;1.00;;;;;;7379920;19;20006;-70
2024/03/09 01:17:23;;;;;;;22.30;11.80;;;3.40;1.00;;;;;;7381975;19;20043;-69
2024/03/09 01:19:53;;;;;;;17.95;11.60;;;3.40;1.00;;;;;;7380789;19;20474;-70
2024/03/09 01:22:23;;;;;;;20.73;11.80;;;3.40;1.00;;;;;;7380930;19;20075;-71
2024/03/09 01:24:54;;;;;;;20.95;12.18;;;3.40;1.00;;;;;;7379820;19;20018;-70
2024/03/09 01:27:28;;;;;;;18.58;11.38;;;3.40;1.00;;;;;;7380775;19;20010;-70
2024/03/09 01:29:59;;;;;;;19.50;11.98;;;3.50;1.00;;;;;;7382796;19;20467;-69
2024/03/09 01:32:32;;;;;;;20.55;12.00;;;3.60;1.00;;;;;;7380941;19;20090;-70
2024/03/09 01:35:02;;;;;;;19.33;11.05;;;3.60;1.00;;;;;;7380146;19;20023;-69
2024/03/09 01:37:33;;;;;;;17.27;11.13;;;3.60;1.00;;;;;;7382268;19;20020;-70
2024/03/09 01:40:04;;;;;;;20.95;10.35;;;3.50;1.00;;;;;;7380506;19;20483;-70
2024/03/09 01:42:37;;;;;;;17.08;10.13;;;3.50;1.00;;;;;;7381798;19;20006;-70
2024/03/09 01:45:09;;;;;;;18.30;10.90;;;3.50;1.00;;;;;;7380539;19;20019;-70
2024/03/09 01:47:41;;;;;;;19.83;11.75;;;3.50;1.00;;;;;;7380250;19;20015;-70
2024/03/09 01:50:13;;;;;;;20.77;11.25;;;3.50;1.00;;;;;;7379669;19;20462;-71
2024/03/09 01:52:47;;;;;;;16.42;10.88;;;3.50;1.00;;;;;;7381964;19;20010;-72
2024/03/09 01:55:19;;;;;;;19.50;10.48;;;3.50;1.00;;;;;;7371617;19;20015;-70
2024/03/09 01:57:55;;;;;;;20.33;11.05;;;3.50;1.00;;;;;;7380507;19;20010;-71
2024/03/09 02:00:26;;;;;;;18.67;11.25;;;3.50;1.00;;;;;;7380328;19;20027;-70
2024/03/09 02:02:57;;;;;;;24.35;11.45;;;3.50;1.00;;;;;;7381331;19;20007;-71
2024/03/09 02:05:28;;;;;;;17.17;10.30;;;3.50;1.00;;;;;;7379484;19;20089;-71
2024/03/09 02:07:58;;;;;;;17.27;10.18;;;3.40;1.00;;;;;;7381088;19;20043;-70
2024/03/09 02:10:29;;;;;;;18.80;11.32;;;3.50;1.00;;;;;;7380140;19;20018;-70
2024/03/09 02:13:02;;;;;;;19.83;10.95;;;3.50;1.00;;;;;;7380088;19;20499;-71
2024/03/09 02:15:33;;;;;;;17.88;10.98;;;3.50;1.00;;;;;;7379166;19;20014;-70
2024/03/09 02:18:05;;;;;;;17.00;10.82;;;3.50;1.00;;;;;;7380617;19;20438;-70
2024/03/09 02:20:38;;;;;;;18.92;11.13;;;3.60;1.00;;;;;;7380217;19;20085;-70
2024/03/09 02:23:09;;;;;;;19.73;11.00;;;3.60;1.00;;;;;;7380493;19;20019;-69
2024/03/09 02:25:42;;;;;;;18.63;11.90;;;3.70;1.00;;;;;;7378693;19;20078;-70
2024/03/09 02:28:12;;;;;;;18.80;12.13;;;3.70;1.00;;;;;;7379574;19;20094;-70
2024/03/09 02:30:48;;;;;;;18.52;12.00;;;3.70;1.00;;;;;;7378761;19;20010;-70
2024/03/09 02:33:18;;;;;;;19.85;11.68;;;3.70;1.00;;;;;;7377582;19;20018;-70
2024/03/09 02:35:48;;;;;;;20.20;11.77;;;3.60;1.00;;;;;;7378926;19;20014;-70
2024/03/09 02:38:19;;;;;;;21.20;12.23;;;3.60;1.00;;;;;;7378041;19;20007;-70
2024/03/09 02:40:52;;;;;;;17.35;10.93;;;3.70;1.00;;;;;;7377844;19;20078;-71
2024/03/09 02:43:24;;;;;;;20.17;11.82;;;3.70;1.00;;;;;;7378519;19;20044;-70
2024/03/09 02:45:54;;;;;;;18.85;11.25;;;3.70;1.00;;;;;;7377673;19;20014;-70
2024/03/09 02:48:24;;;;;;;18.85;11.00;;;3.80;1.00;;;;;;7377861;19;20046;-70
2024/03/09 02:50:54;;;;;;;20.10;11.18;;;3.70;1.00;;;;;;7377972;19;20027;-70
2024/03/09 02:53:25;;;;;;;22.05;11.73;;;3.70;1.00;;;;;;7377543;19;20011;-70
2024/03/09 02:55:58;;;;;;;16.95;10.15;;;3.80;1.00;;;;;;7376787;19;20020;-70
2024/03/09 02:58:28;;;;;;;18.60;10.98;;;3.90;1.00;;;;;;7376985;19;20098;-70
2024/03/09 03:00:58;;;;;;;17.85;11.30;;;3.90;1.00;;;;;;7378505;19;20025;-70
2024/03/09 03:06:11;;;;;;;16.65;10.75;;;4.00;1.00;;;;;;7377921;19;20021;-73
2024/03/09 03:08:41;;;;;;;18.60;11.38;;;4.10;1.00;;;;;;7379049;19;20085;-71
2024/03/09 03:11:14;;;;;;;19.58;11.57;;;4.10;1.00;;;;;;7377192;19;20510;-70
2024/03/09 03:13:45;;;;;;;21.23;11.15;;;4.10;1.00;;;;;;7378652;19;20026;-70
2024/03/09 03:16:20;;;;;;;18.35;10.65;;;4.10;1.00;;;;;;7376971;19;20040;-69
2024/03/09 03:18:51;;;;;;;19.92;11.27;;;4.20;1.00;;;;;;7379153;19;20014;-69
2024/03/09 03:21:21;;;;;;;19.05;11.32;;;4.10;1.00;;;;;;7378386;19;20007;-70
2024/03/09 03:23:51;;;;;;;19.13;11.73;;;4.20;1.00;;;;;;7379107;19;20438;-70
2024/03/09 03:26:24;;;;;;;19.88;11.88;;;4.20;1.00;;;;;;7377719;19;20011;-70
2024/03/09 03:28:54;;;;;;;19.45;11.55;;;4.30;1.00;;;;;;7375029;19;20539;-70
2024/03/09 03:31:25;;;;;;;18.98;11.18;;;4.30;1.00;;;;;;7377714;19;20089;-70
2024/03/09 03:33:56;;;;;;;18.63;11.30;;;4.20;1.00;;;;;;7379095;19;20099;-70
2024/03/09 03:36:27;;;;;;;19.27;11.45;;;4.00;1.00;;;;;;7377334;19;20011;-71
2024/03/09 03:38:57;;;;;;;19.40;11.38;;;3.90;1.00;;;;;;7378638;19;20015;-71
2024/03/09 03:41:29;;;;;;;19.98;12.35;;;4.00;1.00;;;;;;7376872;19;20010;-71
2024/03/09 03:43:59;;;;;;;18.35;11.82;;;4.00;1.00;;;;;;7378896;19;20501;-71
2024/03/09 03:46:29;;;;;;;19.35;11.35;;;4.00;1.00;;;;;;7376973;19;20015;-71
2024/03/09 03:49:01;;;;;;;21.05;12.10;;;4.00;1.00;;;;;;7378164;19;20006;-72
2024/03/09 03:51:31;;;;;;;21.52;12.63;;;4.10;1.00;;;;;;7377902;19;20063;-71
2024/03/09 03:54:01;;;;;;;19.80;12.30;;;4.10;1.00;;;;;;7378548;19;20007;-72
2024/03/09 03:56:34;;;;;;;22.25;11.60;;;4.20;1.00;;;;;;7376524;19;20002;-72
2024/03/09 03:59:05;;;;;;;23.90;12.35;;;4.20;1.00;;;;;;7379199;19;20485;-72
2024/03/09 04:01:35;;;;;;;20.50;11.75;;;4.20;1.00;;;;;;7377998;19;20686;-71
2024/03/09 04:04:06;;;;;;;19.65;12.52;;;4.30;1.00;;;;;;7377630;19;20007;-72
2024/03/09 04:06:36;;;;;;;21.25;13.18;;;4.20;1.00;;;;;;7377308;19;20010;-72
2024/03/09 04:09:07;;;;;;;21.05;12.55;;;4.20;1.00;;;;;;7377337;19;20015;-73
2024/03/09 04:11:39;;;;;;;24.35;12.65;;;4.20;1.00;;;;;;7376700;19;20014;-72
2024/03/09 04:14:09;;;;;;;22.92;13.82;;;4.20;1.00;;;;;;7377827;19;20021;-72
2024/03/09 04:16:40;;;;;;;21.77;13.07;;;4.20;1.00;;;;;;7377051;19;20078;-72
2024/03/09 04:19:10;;;;;;;23.58;12.65;;;4.20;1.00;;;;;;7376599;19;20530;-72
2024/03/09 04:21:40;;;;;;;19.98;12.95;;;4.20;1.00;;;;;;7376494;19;20006;-72
2024/03/09 04:24:11;;;;;;;21.95;12.65;;;4.10;1.00;;;;;;7378247;19;20728;-71
2024/03/09 04:26:45;;;;;;;22.30;12.57;;;4.10;1.00;;;;;;7377131;19;20014;-72
2024/03/09 04:29:15;;;;;;;25.90;13.98;;;4.00;1.00;;;;;;7375597;19;20098;-72
2024/03/09 04:31:45;;;;;;;19.60;13.00;;;4.00;1.00;;;;;;7377060;19;20006;-72
2024/03/09 04:34:17;;;;;;;20.20;12.45;;;4.00;1.00;;;;;;7375727;19;20564;-71
2024/03/09 04:36:47;;;;;;;22.10;11.95;;;4.00;1.00;;;;;;7374544;19;20009;-72
2024/03/09 04:39:19;;;;;;;19.50;13.02;;;4.00;1.00;;;;;;7375861;19;20403;-71
2024/03/09 04:41:54;;;;;;;22.17;12.45;;;4.00;1.00;;;;;;7375849;19;20007;-71
2024/03/09 04:44:26;;;;;;;20.52;12.68;;;4.10;1.00;;;;;;7374818;19;20007;-71
2024/03/09 04:47:00;;;;;;;26.23;12.98;;;3.90;1.00;;;;;;7376675;19;20011;-71
2024/03/09 04:49:31;;;;;;;20.20;12.27;;;4.00;1.00;;;;;;7376855;19;20031;-72
2024/03/09 04:52:01;;;;;;;24.45;13.13;;;4.00;1.00;;;;;;7376970;19;20019;-72
2024/03/09 04:54:31;;;;;;;21.10;12.90;;;4.00;1.00;;;;;;7376080;19;20031;-71
2024/03/09 04:57:04;;;;;;;20.83;12.75;;;4.00;1.00;;;;;;7376266;19;20007;-71
2024/03/09 04:59:34;;;;;;;24.70;13.98;;;4.10;1.00;;;;;;7375960;19;20009;-71
2024/03/09 05:02:04;;;;;;;23.00;13.38;;;4.10;1.00;;;;;;7376413;19;20034;-71
2024/03/09 05:04:34;;;;;;;21.00;12.43;;;4.10;1.00;;;;;;7375420;19;20487;-71
2024/03/09 05:07:05;;;;;;;19.63;12.32;;;4.00;1.00;;;;;;7375469;19;20134;-72
2024/03/09 05:09:37;;;;;;;24.00;14.18;;;3.90;1.00;;;;;;7376011;19;20007;-71
2024/03/09 05:12:10;;;;;;;22.38;13.20;;;4.00;1.00;;;;;;7375381;19;20018;-70
2024/03/09 05:14:40;;;;;;;22.83;12.88;;;4.00;1.00;;;;;;7374033;19;20010;-71
2024/03/09 05:17:14;;;;;;;23.63;13.50;;;4.00;1.00;;;;;;7375549;19;20018;-70
2024/03/09 05:19:44;;;;;;;20.70;13.07;;;3.90;1.00;;;;;;7375017;19;20006;-71
2024/03/09 05:22:14;;;;;;;21.48;13.27;;;3.80;1.00;;;;;;7373451;19;20524;-71
2024/03/09 05:24:44;;;;;;;24.38;14.18;;;3.90;1.00;;;;;;7377846;19;20043;-71
2024/03/09 05:27:16;;;;;;;25.38;13.77;;;3.90;1.00;;;;;;7381970;19;20507;-72
2024/03/09 05:29:46;;;;;;;24.08;13.70;;;4.00;1.00;;;;;;7382380;19;20017;-70
2024/03/09 05:32:18;;;;;;;23.90;14.00;;;4.00;1.00;;;;;;7382720;19;20011;-71
2024/03/09 05:34:48;;;;;;;23.10;13.27;;;4.00;1.00;;;;;;7381356;19;20027;-71
2024/03/09 05:37:18;;;;;;;21.85;12.98;;;4.00;1.00;;;;;;7382562;19;20395;-71
2024/03/09 05:39:51;;;;;;;26.00;13.98;;;4.10;1.00;;;;;;7381884;19;20459;-71
2024/03/09 05:42:24;;;;;;;24.23;14.43;;;4.10;1.00;;;;;;7379277;19;20074;-69
2024/03/09 05:44:54;;;;;;;24.42;13.40;;;4.20;1.00;;;;;;7376918;19;20013;-71
2024/03/09 05:47:25;;;;;;;23.98;13.38;;;4.20;1.00;;;;;;7381894;19;20010;-72
2024/03/09 05:49:55;;;;;;;22.05;12.93;;;4.20;1.00;;;;;;7381115;19;20015;-71
2024/03/09 05:52:26;;;;;;;23.95;13.88;;;4.30;1.00;;;;;;7380809;19;20014;-71
2024/03/09 05:54:56;;;;;;;25.90;14.48;;;4.30;1.00;;;;;;7380579;19;20010;-71
2024/03/09 05:57:29;;;;;;;24.52;14.07;;;4.30;1.00;;;;;;7380217;19;20013;-71
2024/03/09 05:59:59;;;;;;;20.98;12.82;;;4.30;1.00;;;;;;7381147;19;20421;-71
2024/03/09 06:02:29;;;;;;;22.42;12.77;;;4.20;1.00;;;;;;7380944;19;20014;-70
2024/03/09 06:05:00;;;;;;;24.83;14.10;;;4.20;1.00;;;;;;7379780;19;20010;-71
2024/03/09 06:07:31;;;;;;;24.45;13.18;;;4.20;1.00;;;;;;7380471;19;20007;-71
2024/03/09 06:10:01;;;;;;;22.65;13.65;;;4.20;1.00;;;;;;7380491;19;20498;-71
2024/03/09 06:12:34;;;;;;;21.20;13.63;;;4.30;1.00;;;;;;7380615;19;20010;-71
2024/03/09 06:15:05;;;;;;;23.27;13.10;;;4.40;1.00;;;;;;7379824;19;20015;-71
2024/03/09 06:17:35;;;;;;;24.27;14.32;;;4.40;1.00;;;;;;7381105;19;20473;-71
2024/03/09 06:20:06;;;;;;;26.33;15.32;;;4.40;1.00;;;;;;7380432;19;20478;-73
2024/03/09 06:22:37;;;;;;;23.63;13.68;;;4.40;1.00;;;;;;7378855;19;20010;-71
2024/03/09 06:25:08;;;;;;;24.63;14.50;;;4.40;1.00;;;;;;7379556;19;20007;-71
2024/03/09 06:27:41;;;;;;;25.30;15.18;;;4.40;1.00;;;;;;7379231;19;20102;-72
2024/03/09 06:30:15;;;;;;;26.33;14.68;;;4.40;1.00;;;;;;7380109;19;20515;-71
2024/03/09 06:32:46;;;;;;;27.10;15.40;;;4.40;1.00;;;;;;7379906;19;20014;-72
2024/03/09 06:35:19;;;;;;;27.65;15.48;;;4.40;1.00;;;;;;7378382;19;20086;-71
2024/03/09 06:37:50;;;;;;;23.88;13.90;;;4.40;1.00;;;;;;7381090;19;20018;-71
2024/03/09 06:40:22;;;;;;;26.90;13.57;;;4.40;1.00;;;;;;7380172;19;20543;-72
2024/03/09 06:42:58;;;;;;;24.95;13.75;;;4.40;1.00;;;;;;7381000;19;20011;-71
2024/03/09 06:45:28;;;;;;;27.00;14.75;;;4.40;1.00;;;;;;7381017;19;20027;-72
2024/03/09 06:48:00;;;;;;;23.02;14.45;;;4.50;1.00;;;;;;7382994;19;20011;-72
2024/03/09 06:50:31;;;;;;;26.58;14.18;;;4.60;1.00;;;;;;7379895;19;20002;-72
2024/03/09 06:53:02;;;;;;;22.85;14.77;;;4.70;1.00;;;;;;7378562;19;20361;-72
2024/03/09 06:55:34;;;;;;;22.83;13.65;;;4.80;1.00;;;;;;7379106;19;20003;-71
2024/03/09 06:58:07;;;;;;;23.25;14.52;;;4.80;1.00;;;;;;7380522;19;20012;-71
2024/03/09 07:00:37;;;;;;;25.45;14.15;;;4.90;1.00;;;;;;7378840;19;20010;-72
2024/03/09 07:03:08;;;;;;;21.65;13.70;;;5.00;1.00;;;;;;7379041;19;20653;-71
2024/03/09 07:05:38;;;;;;;27.83;14.32;;;5.10;1.00;;;;;;7378625;19;20007;-71
2024/03/09 07:08:15;;;;;;;22.77;13.93;;;5.00;1.00;;;;;;7379368;19;20010;-72
2024/03/09 07:10:47;;;;;;;23.00;14.13;;;5.20;1.00;;;;;;7378134;19;20804;-72
2024/03/09 07:13:20;;;;;;;26.38;14.15;;;5.30;1.00;;;;;;7379569;19;20701;-71
2024/03/09 07:15:50;;;;;;;21.80;14.48;;;5.40;1.00;;;;;;7377180;19;20010;-70
2024/03/09 07:18:21;;;;;;;21.35;13.95;;;5.60;1.00;;;;;;7378909;19;20011;-70
2024/03/09 07:20:52;;;;;;;21.95;14.18;;;5.50;1.00;;;;;;7377175;19;20699;-71
2024/03/09 07:23:22;;;;;;;22.13;13.18;;;5.60;1.00;;;;;;7378235;19;20006;-71
2024/03/09 07:25:52;;;;;;;23.15;13.70;;;5.60;1.00;;;;;;7376943;19;20045;-72
2024/03/09 07:28:25;;;;;;;21.65;14.18;;;5.50;1.00;;;;;;7376194;19;20431;-73
2024/03/09 07:30:55;;;;;;;22.08;13.85;;;5.60;1.00;;;;;;7376895;19;20014;-70
2024/03/09 07:33:25;;;;;;;20.55;13.38;;;5.60;1.00;;;;;;7377606;19;20434;-71
2024/03/09 07:35:56;;;;;;;22.00;13.75;;;5.60;1.00;;;;;;7375670;19;20014;-71
2024/03/09 07:38:27;;;;;;;20.73;13.55;;;5.70;1.00;;;;;;7377684;19;20525;-71
2024/03/09 07:40:58;;;;;;;19.67;13.00;;;5.70;1.00;;;;;;7377766;19;20029;-72
2024/03/09 07:43:31;;;;;;;22.70;14.23;;;5.80;1.00;;;;;;7377242;19;20061;-73
2024/03/09 07:46:06;;;;;;;19.90;13.82;;;5.90;1.00;;;;;;7374825;19;20010;-72
2024/03/09 07:48:37;;;;;;;24.58;13.85;;;6.00;1.00;;;;;;7375218;19;20010;-71
2024/03/09 07:51:08;;;;;;;21.63;13.52;;;6.10;1.00;;;;;;7376558;19;20002;-71
2024/03/09 07:53:38;;;;;;;21.30;14.50;;;6.20;1.00;;;;;;7376299;19;20018;-71
2024/03/09 07:56:08;;;;;;;21.70;13.73;;;6.30;1.00;;;;;;7373701;19;20017;-71
2024/03/09 07:58:45;;;;;;;20.27;13.75;;;6.20;1.00;;;;;;7379735;19;20010;-71
2024/03/09 08:01:18;;;;;;;21.25;13.45;;;6.20;1.00;;;;;;7380665;19;20414;-71
2024/03/09 08:03:48;;;;;;;23.88;13.35;;;6.30;1.00;;;;;;7372301;19;20002;-71
2024/03/09 08:06:18;;;;;;;25.73;14.60;;;6.30;1.00;;;;;;7377076;19;20014;-69
2024/03/09 08:08:48;;;;;;;22.60;14.32;;;6.30;1.00;;;;;;7376048;19;20524;-71
2024/03/09 08:11:22;;;;;;;25.52;14.48;;;6.40;1.00;;;;;;7377468;19;20373;-71
2024/03/09 08:13:55;;;;;;;22.50;14.23;;;6.50;1.00;;;;;;7378405;19;20010;-70
2024/03/09 08:16:25;;;;;;;27.83;14.55;;;6.40;1.00;;;;;;7377240;19;20014;-71
2024/03/09 08:18:55;;;;;;;21.63;14.10;;;6.60;1.00;;;;;;7377982;19;20117;-71
2024/03/09 08:21:25;;;;;;;49.03;16.90;;;6.70;1.00;;;;;;7376946;19;20010;-71
2024/03/09 08:23:57;;;;;;;23.38;15.15;;;6.90;1.00;;;;;;7375898;19;20040;-71
2024/03/09 08:26:31;;;;;;;22.30;14.55;;;6.90;1.00;;;;;;7376252;19;20716;-69
2024/03/09 08:29:03;;;;;;;32.80;16.02;;;7.00;1.00;;;;;;7376368;19;20039;-70
2024/03/09 08:31:34;;;;;;;28.92;14.52;;;7.10;1.00;;;;;;7375855;19;20023;-69
2024/03/09 08:34:04;;;;;;;22.25;14.27;;;7.20;1.00;;;;;;7377043;19;20081;-71
2024/03/09 08:36:34;;;;;;;23.80;14.80;;;7.10;1.00;;;;;;7375264;19;20021;-71
2024/03/09 08:39:04;;;;;;;20.77;14.23;;;7.10;1.00;;;;;;7377232;19;20075;-70
2024/03/09 08:41:35;;;;;;;21.23;14.65;;;7.30;1.00;;;;;;7375241;19;20010;-71
2024/03/09 08:44:08;;;;;;;24.08;15.52;;;7.40;1.00;;;;;;7375381;19;20026;-71
2024/03/09 08:46:38;;;;;;;21.48;14.50;;;7.60;1.00;;;;;;7375532;19;20011;-71
2024/03/09 08:49:08;;;;;;;29.52;15.88;;;7.70;1.00;;;;;;7376013;19;20446;-71
2024/03/09 08:51:38;;;;;;;23.38;15.02;;;7.80;1.00;;;;;;7376205;19;20033;-71
2024/03/09 08:54:09;;;;;;;25.25;15.75;;;7.90;1.00;;;;;;7375614;19;20458;-70
2024/03/09 08:56:38;;;;;;;21.48;14.57;;;8.00;1.00;;;;;;7375276;19;20009;-70
2024/03/09 08:59:11;;;;;;;25.33;15.25;;;8.00;1.00;;;;;;7382609;19;20528;-70
2024/03/09 09:01:41;;;;;;;30.73;16.40;;;8.30;1.00;;;;;;7383571;19;20018;-71
2024/03/09 09:04:12;;;;;;;24.58;14.93;;;8.30;1.00;;;;;;7382607;19;20061;-71
2024/03/09 09:06:42;;;;;;;23.10;15.27;;;8.30;1.00;;;;;;7381655;19;20010;-71
2024/03/09 09:09:23;;;;;;;25.33;15.93;;;8.30;1.00;;;;;;7383524;19;20003;-69
2024/03/09 09:11:54;;;;;;;26.83;14.98;;;8.40;1.00;;;;;;7385601;19;19999;-69
2024/03/09 09:14:27;;;;;;;22.38;15.48;;;8.60;1.00;;;;;;7383727;19;20790;-71
2024/03/09 09:16:57;;;;;;;22.98;15.02;;;8.60;1.00;;;;;;7381059;19;20014;-70
2024/03/09 09:19:31;;;;;;;23.50;15.05;;;8.60;1.00;;;;;;7383383;19;20009;-71
2024/03/09 09:22:02;;;;;;;23.55;15.50;;;8.90;1.00;;;;;;7376212;19;20010;-69
2024/03/09 09:24:32;;;;;;;19.02;14.55;;;8.70;1.00;;;;;;7383151;19;20021;-71
2024/03/09 09:27:02;;;;;;;20.55;14.13;;;8.60;1.00;;;;;;7382634;19;20070;-71
2024/03/09 09:29:35;;;;;;;21.40;14.25;;;8.60;1.00;;;;;;7381978;19;20032;-71
2024/03/09 09:32:06;;;;;;;19.75;14.18;;;8.70;1.00;;;;;;7379025;19;20006;-70
2024/03/09 09:34:36;;;;;;;28.80;16.25;;;8.90;1.00;;;;;;7382418;19;20018;-70
2024/03/09 09:37:12;;;;;;;45.08;17.00;;;9.10;1.00;;;;;;7383458;19;20553;-70
2024/03/09 09:39:43;;;;;;;20.75;14.13;;;9.30;1.00;;;;;;7377213;19;20010;-71
2024/03/09 09:42:13;;;;;;;22.48;15.77;;;9.30;1.00;;;;;;7378247;19;20017;-69
2024/03/09 09:44:46;;;;;;;21.15;14.93;;;9.20;1.00;;;;;;7377723;19;20033;-70
2024/03/09 09:47:17;;;;;;;22.08;15.45;;;9.20;1.00;;;;;;7379471;19;20017;-70
2024/03/09 09:49:48;;;;;;;18.55;13.80;;;9.30;1.00;;;;;;7381885;19;20042;-70
2024/03/09 09:52:19;;;;;;;22.65;14.95;;;9.30;1.00;;;;;;7383360;19;20094;-71
2024/03/09 09:54:51;;;;;;;21.88;13.70;;;9.20;1.00;;;;;;7378800;19;20019;-71
2024/03/09 09:57:24;;;;;;;21.00;15.15;;;9.30;1.00;;;;;;7380085;19;20015;-70
2024/03/09 09:59:58;;;;;;;23.00;15.10;;;9.40;1.00;;;;;;7381779;19;20811;-70
2024/03/09 10:02:29;;;;;;;20.67;14.82;;;9.30;1.00;;;;;;7380320;19;20021;-70
2024/03/09 10:05:00;;;;;;;24.92;15.80;;;9.70;1.00;;;;;;7376337;19;20006;-71
2024/03/09 10:07:34;;;;;;;23.70;15.75;;;10.00;1.00;;;;;;7375717;19;20014;-71
2024/03/09 10:10:16;;;;;;;24.90;15.73;;;9.80;1.00;;;;;;7374880;19;20021;-70
2024/03/09 10:12:46;;;;;;;22.60;14.63;;;9.90;1.00;;;;;;7381170;19;20538;-70
2024/03/09 10:15:20;;;;;;;21.52;14.63;;;9.90;1.00;;;;;;7376417;19;20014;-72
2024/03/09 10:17:50;;;;;;;20.95;13.93;;;10.00;1.00;;;;;;7374649;19;20010;-70
2024/03/09 10:20:20;;;;;;;21.60;15.45;;;10.00;1.00;;;;;;7376637;19;20476;-71
2024/03/09 10:22:50;;;;;;;21.73;16.23;;;10.00;1.00;;;;;;7378956;19;20014;-71
2024/03/09 10:25:27;;;;;;;20.30;13.77;;;10.00;1.00;;;;;;7376049;19;20018;-71
2024/03/09 10:27:59;;;;;;;21.40;14.13;;;10.10;1.00;;;;;;7368516;19;20010;-71
2024/03/09 10:30:32;;;;;;;27.77;15.30;;;10.50;1.00;;;;;;7358053;19;20129;-70
2024/03/09 10:33:02;;;;;;;30.33;15.02;;;10.80;1.00;;;;;;7359132;19;20111;-72
2024/03/09 10:35:32;;;;;;;33.03;15.80;;;10.60;1.00;;;;;;7364250;19;20350;-70
2024/03/09 10:38:03;;;;;;;22.17;15.50;;;10.60;1.00;;;;;;7365193;19;20014;-70
2024/03/09 10:40:34;;;;;;;20.30;14.18;;;10.50;1.00;;;;;;7364416;19;20031;-71
2024/03/09 10:43:06;;;;;;;18.95;13.98;;;10.70;1.00;;;;;;7365472;19;20010;-70
2024/03/09 10:45:40;;;;;;;20.42;14.48;;;10.70;1.00;;;;;;7364383;19;20071;-70
2024/03/09 10:48:12;;;;;;;24.38;15.23;;;10.70;1.00;;;;;;7364288;19;20015;-69
2024/03/09 10:50:49;;;;;;;19.33;14.35;;;11.00;1.00;;;;;;7365474;19;20017;-70
2024/03/09 10:53:35;;;;;;;19.80;14.20;;;11.00;1.00;;;;;;7366003;19;20014;-70
2024/03/09 10:56:11;;;;;;;20.52;13.73;;;11.10;1.00;;;;;;7363751;19;20102;-71
2024/03/09 10:58:43;;;;;;;19.95;14.05;;;11.20;1.00;;;;;;7364307;19;20010;-70
2024/03/09 11:01:18;;;;;;;18.17;14.07;;;11.20;1.00;;;;;;7366412;19;20079;-70
2024/03/09 11:03:51;;;;;;;18.67;13.95;;;11.30;1.00;;;;;;7363942;19;20012;-70
2024/03/09 11:06:24;;;;;;;19.80;13.13;;;11.50;1.00;;;;;;7363249;19;20495;-70
2024/03/09 11:08:56;;;;;;;19.08;13.30;;;11.60;1.00;;;;;;7363789;19;20006;-69
2024/03/09 11:11:30;;;;;;;19.42;13.07;;;11.80;1.00;;;;;;7364293;19;20500;-70
2024/03/09 11:14:05;;;;;;;16.75;12.43;;;11.90;1.00;;;;;;7365473;19;20015;-70
2024/03/09 11:16:38;;;;;;;19.08;12.25;;;11.90;1.00;;;;;;7365083;19;20011;-70
2024/03/09 11:19:13;;;;;;;16.60;12.52;;;12.10;1.00;;;;;;7364340;19;20010;-70
2024/03/09 11:21:46;;;;;;;17.58;12.88;;;12.40;1.00;;;;;;7363667;19;20081;-70
2024/03/09 11:24:21;;;;;;;16.35;11.35;;;12.30;1.00;;;;;;7363295;19;20045;-70
2024/03/09 11:26:53;;;;;;;15.40;11.95;;;12.30;1.00;;;;;;7362913;19;20010;-71
2024/03/09 11:29:25;;;;;;;17.63;12.48;;;12.20;1.00;;;;;;7363496;19;20135;-71
2024/03/09 11:31:59;;;;;;;17.38;12.13;;;12.30;1.00;;;;;;7365214;19;20027;-70
2024/03/09 11:34:29;;;;;;;15.20;11.25;;;12.40;1.00;;;;;;7364958;19;20047;-72
2024/03/09 11:37:01;;;;;;;20.02;12.02;;;12.50;1.00;;;;;;7365033;19;20426;-70
2024/03/09 11:39:33;;;;;;;15.30;10.95;;;12.50;1.00;;;;;;7363299;19;20050;-71
2024/03/09 11:42:08;;;;;;;16.75;12.07;;;12.70;1.00;;;;;;7363415;19;20019;-70
2024/03/09 11:44:39;;;;;;;16.75;11.50;;;12.60;1.00;;;;;;7363932;19;20014;-70
2024/03/09 11:47:13;;;;;;;17.63;11.35;;;12.70;1.00;;;;;;7365751;19;20010;-70
2024/03/09 11:49:44;;;;;;;15.95;11.13;;;12.70;1.00;;;;;;7357974;19;20023;-72
2024/03/09 11:52:15;;;;;;;17.38;11.20;;;12.90;1.00;;;;;;7361680;19;20015;-70
2024/03/09 11:54:46;;;;;;;17.02;11.55;;;13.00;1.00;;;;;;7363565;19;20018;-70
2024/03/09 11:57:16;;;;;;;15.65;10.90;;;13.40;1.00;;;;;;7363679;19;20025;-72
2024/03/09 11:59:46;;;;;;;15.20;10.30;;;13.40;1.00;;;;;;7361678;19;20021;-72
2024/03/09 12:02:23;;;;;;;16.30;10.45;;;13.40;1.00;;;;;;7364380;19;20014;-70
2024/03/09 12:05:01;;;;;;;15.18;9.88;;;13.50;1.00;;;;;;7364741;19;21186;-71
2024/03/09 12:07:31;;;;;;;14.27;9.35;;;13.70;1.00;;;;;;7362718;19;20010;-72
2024/03/09 12:10:02;;;;;;;12.98;9.20;;;13.70;1.00;;;;;;7361259;19;20015;-70
2024/03/09 12:12:32;;;;;;;14.88;10.38;;;13.80;1.00;;;;;;7363808;19;20010;-71
2024/03/09 12:15:03;;;;;;;15.13;9.73;;;13.80;1.00;;;;;;7360658;19;20018;-71
2024/03/09 12:17:36;;;;;;;14.95;10.25;;;14.10;1.00;;;;;;7363312;19;20014;-71
2024/03/09 12:20:08;;;;;;;15.07;10.45;;;13.90;1.00;;;;;;7361307;19;20014;-71
2024/03/09 12:22:39;;;;;;;12.65;9.85;;;13.80;1.00;;;;;;7363397;19;20013;-70
2024/03/09 12:25:12;;;;;;;12.57;9.48;;;13.70;1.00;;;;;;7360978;19;20035;-71
2024/03/09 12:27:43;;;;;;;14.20;9.57;;;14.20;1.00;;;;;;7362887;19;20028;-71
2024/03/09 12:30:15;;;;;;;14.13;10.00;;;14.30;1.00;;;;;;7361130;19;21111;-70
2024/03/09 12:32:48;;;;;;;12.77;9.52;;;14.20;1.00;;;;;;7364547;19;20549;-70
2024/03/09 12:35:20;;;;;;;12.50;9.90;;;14.50;1.00;;;;;;7368574;19;20023;-70
2024/03/09 12:37:50;;;;;;;13.93;9.48;;;14.40;1.00;;;;;;7369958;19;20518;-72
2024/03/09 12:40:22;;;;;;;12.35;8.75;;;14.40;1.00;;;;;;7367891;19;20016;-70
2024/03/09 12:42:54;;;;;;;12.57;9.55;;;14.50;1.00;;;;;;7369227;19;20002;-71
2024/03/09 12:45:25;;;;;;;18.02;10.38;;;14.50;1.00;;;;;;7369711;19;20022;-70
2024/03/09 12:47:58;;;;;;;13.60;9.80;;;14.60;1.00;;;;;;7368997;19;20018;-72
2024/03/09 12:50:31;;;;;;;12.02;8.18;;;14.70;1.00;;;;;;7368724;19;20010;-70
2024/03/09 12:53:02;;;;;;;10.68;7.30;;;14.90;1.00;;;;;;7370630;19;20015;-71
2024/03/09 12:55:36;;;;;;;7.43;5.60;;;15.10;1.00;;;;;;7370028;19;20022;-71
2024/03/09 12:58:11;;;;;;;4.87;3.40;;;15.10;1.00;;;;;;7367590;19;20014;-71
2024/03/09 13:00:41;;;;;;;6.72;3.70;;;15.20;1.00;;;;;;7368731;19;20014;-70
2024/03/09 13:03:17;;;;;;;5.28;3.88;;;15.10;1.00;;;;;;7368111;19;20017;-71
2024/03/09 13:05:50;;;;;;;7.45;3.80;;;15.30;1.00;;;;;;7367149;19;20022;-71
2024/03/09 13:08:26;;;;;;;4.90;3.65;;;15.40;1.00;;;;;;7366435;19;20014;-70
2024/03/09 13:10:57;;;;;;;9.15;4.47;;;15.60;1.00;;;;;;7367563;19;20013;-70